sensor_id;sensor_type;location;lat;lon;timestamp;temperature;humidity
46416;DHT22;32620;51.704;7.822;2022-10-16T00:01:36;12.80;99.90
46416;DHT22;32620;51.704;7.822;2022-10-16T00:04:02;12.80;99.90
46416;DHT22;32620;51.704;7.822;2022-10-16T00:06:28;12.80;99.90
46416;DHT22;32620;51.704;7.822;2022-10-16T00:08:54;12.80;99.90
46416;DHT22;32620;51.704;7.822;2022-10-16T00:11:21;12.70;99.90
46416;DHT22;32620;51.704;7.822;2022-10-16T00:13:47;12.70;99.90
46416;DHT22;32620;51.704;7.822;2022-10-16T00:16:13;12.70;99.90
46416;DHT22;32620;51.704;7.822;2022-10-16T00:18:39;12.70;99.90
46416;DHT22;32620;51.704;7.822;2022-10-16T00:21:07;12.60;99.90
46416;DHT22;32620;51.704;7.822;2022-10-16T00:23:33;12.60;99.90
46416;DHT22;32620;51.704;7.822;2022-10-16T00:25:59;12.50;99.90
46416;DHT22;32620;51.704;7.822;2022-10-16T00:28:25;12.50;99.90
46416;DHT22;32620;51.704;7.822;2022-10-16T00:30:51;12.50;99.90
46416;DHT22;32620;51.704;7.822;2022-10-16T00:33:17;12.40;99.90
46416;DHT22;32620;51.704;7.822;2022-10-16T00:35:42;12.40;99.90
46416;DHT22;32620;51.704;7.822;2022-10-16T00:38:08;12.40;99.90
46416;DHT22;32620;51.704;7.822;2022-10-16T00:40:34;12.30;99.90
46416;DHT22;32620;51.704;7.822;2022-10-16T00:42:59;12.20;99.90
46416;DHT22;32620;51.704;7.822;2022-10-16T00:45:25;12.20;99.90
46416;DHT22;32620;51.704;7.822;2022-10-16T00:47:50;12.10;99.90
46416;DHT22;32620;51.704;7.822;2022-10-16T00:50:22;12.10;99.90
46416;DHT22;32620;51.704;7.822;2022-10-16T00:52:49;12.10;99.90
46416;DHT22;32620;51.704;7.822;2022-10-16T00:55:15;12.00;99.90
46416;DHT22;32620;51.704;7.822;2022-10-16T00:57:41;12.00;99.90
46416;DHT22;32620;51.704;7.822;2022-10-16T01:00:08;12.00;99.90
46416;DHT22;32620;51.704;7.822;2022-10-16T01:02:34;12.00;99.90
46416;DHT22;32620;51.704;7.822;2022-10-16T01:04:59;12.00;99.90
46416;DHT22;32620;51.704;7.822;2022-10-16T01:07:43;12.00;99.90
46416;DHT22;32620;51.704;7.822;2022-10-16T01:10:27;12.00;99.90
46416;DHT22;32620;51.704;7.822;2022-10-16T01:15:37;11.90;99.90
46416;DHT22;32620;51.704;7.822;2022-10-16T01:18:09;11.80;99.90
46416;DHT22;32620;51.704;7.822;2022-10-16T01:20:37;11.80;99.90
46416;DHT22;32620;51.704;7.822;2022-10-16T01:28:37;11.70;99.90
46416;DHT22;32620;51.704;7.822;2022-10-16T01:31:04;11.70;99.90
46416;DHT22;32620;51.704;7.822;2022-10-16T01:33:46;11.70;99.90
46416;DHT22;32620;51.704;7.822;2022-10-16T01:36:13;11.70;99.90
46416;DHT22;32620;51.704;7.822;2022-10-16T01:38:40;11.80;99.90
46416;DHT22;32620;51.704;7.822;2022-10-16T01:41:08;11.80;99.90
46416;DHT22;32620;51.704;7.822;2022-10-16T01:43:36;11.80;99.90
46416;DHT22;32620;51.704;7.822;2022-10-16T01:46:03;11.80;99.90
46416;DHT22;32620;51.704;7.822;2022-10-16T01:48:30;11.90;99.90
46416;DHT22;32620;51.704;7.822;2022-10-16T01:50:58;11.90;99.90
46416;DHT22;32620;51.704;7.822;2022-10-16T01:53:24;11.90;99.90
46416;DHT22;32620;51.704;7.822;2022-10-16T01:55:50;11.90;99.90
46416;DHT22;32620;51.704;7.822;2022-10-16T01:58:17;12.00;99.90
46416;DHT22;32620;51.704;7.822;2022-10-16T02:00:43;11.90;99.90
46416;DHT22;32620;51.704;7.822;2022-10-16T02:03:10;11.80;99.90
46416;DHT22;32620;51.704;7.822;2022-10-16T02:05:39;11.80;99.90
46416;DHT22;32620;51.704;7.822;2022-10-16T02:08:06;11.70;99.90
46416;DHT22;32620;51.704;7.822;2022-10-16T02:10:32;11.60;99.90
46416;DHT22;32620;51.704;7.822;2022-10-16T02:12:59;11.50;99.90
46416;DHT22;32620;51.704;7.822;2022-10-16T02:15:26;11.50;99.90
46416;DHT22;32620;51.704;7.822;2022-10-16T02:17:51;11.40;99.90
46416;DHT22;32620;51.704;7.822;2022-10-16T02:20:17;11.40;99.90
46416;DHT22;32620;51.704;7.822;2022-10-16T02:22:45;11.30;99.90
46416;DHT22;32620;51.704;7.822;2022-10-16T02:25:15;11.40;99.90
46416;DHT22;32620;51.704;7.822;2022-10-16T02:27:59;11.30;99.90
46416;DHT22;32620;51.704;7.822;2022-10-16T02:30:34;11.40;99.90
46416;DHT22;32620;51.704;7.822;2022-10-16T02:33:02;11.30;99.90
46416;DHT22;32620;51.704;7.822;2022-10-16T02:35:39;11.30;99.90
46416;DHT22;32620;51.704;7.822;2022-10-16T02:38:06;11.20;99.90
46416;DHT22;32620;51.704;7.822;2022-10-16T02:40:31;11.20;99.90
46416;DHT22;32620;51.704;7.822;2022-10-16T02:42:57;11.20;99.90
46416;DHT22;32620;51.704;7.822;2022-10-16T02:45:23;11.10;99.90
46416;DHT22;32620;51.704;7.822;2022-10-16T02:47:48;11.10;99.90
46416;DHT22;32620;51.704;7.822;2022-10-16T02:50:14;11.20;99.90
46416;DHT22;32620;51.704;7.822;2022-10-16T02:52:40;11.20;99.90
46416;DHT22;32620;51.704;7.822;2022-10-16T02:55:05;11.30;99.90
46416;DHT22;32620;51.704;7.822;2022-10-16T02:57:31;11.30;99.90
46416;DHT22;32620;51.704;7.822;2022-10-16T02:59:57;11.30;99.90
46416;DHT22;32620;51.704;7.822;2022-10-16T03:02:22;11.30;99.90
46416;DHT22;32620;51.704;7.822;2022-10-16T03:04:48;11.50;99.90
46416;DHT22;32620;51.704;7.822;2022-10-16T03:07:13;11.50;99.90
46416;DHT22;32620;51.704;7.822;2022-10-16T03:09:39;11.60;99.90
46416;DHT22;32620;51.704;7.822;2022-10-16T03:12:04;11.70;99.90
46416;DHT22;32620;51.704;7.822;2022-10-16T03:14:30;11.70;99.90
46416;DHT22;32620;51.704;7.822;2022-10-16T03:16:55;11.80;99.90
46416;DHT22;32620;51.704;7.822;2022-10-16T03:19:21;11.80;99.90
46416;DHT22;32620;51.704;7.822;2022-10-16T03:21:46;12.00;99.90
46416;DHT22;32620;51.704;7.822;2022-10-16T03:24:11;12.10;99.90
46416;DHT22;32620;51.704;7.822;2022-10-16T03:26:37;12.20;99.90
46416;DHT22;32620;51.704;7.822;2022-10-16T03:29:03;12.30;99.90
46416;DHT22;32620;51.704;7.822;2022-10-16T03:31:29;12.40;99.90
46416;DHT22;32620;51.704;7.822;2022-10-16T03:33:54;12.50;99.90
46416;DHT22;32620;51.704;7.822;2022-10-16T03:36:20;12.70;99.90
46416;DHT22;32620;51.704;7.822;2022-10-16T03:38:45;12.70;99.90
46416;DHT22;32620;51.704;7.822;2022-10-16T03:41:13;12.80;99.90
46416;DHT22;32620;51.704;7.822;2022-10-16T03:43:38;12.80;99.90
46416;DHT22;32620;51.704;7.822;2022-10-16T03:46:04;12.90;99.90
46416;DHT22;32620;51.704;7.822;2022-10-16T03:48:29;13.00;99.90
46416;DHT22;32620;51.704;7.822;2022-10-16T03:50:55;13.00;99.90
46416;DHT22;32620;51.704;7.822;2022-10-16T03:53:21;13.10;99.90
46416;DHT22;32620;51.704;7.822;2022-10-16T03:55:46;13.10;99.90
46416;DHT22;32620;51.704;7.822;2022-10-16T03:58:12;13.20;99.90
46416;DHT22;32620;51.704;7.822;2022-10-16T04:00:44;13.20;99.90
46416;DHT22;32620;51.704;7.822;2022-10-16T04:03:10;13.20;99.90
46416;DHT22;32620;51.704;7.822;2022-10-16T04:05:36;13.30;99.90
46416;DHT22;32620;51.704;7.822;2022-10-16T04:08:01;13.30;99.90
46416;DHT22;32620;51.704;7.822;2022-10-16T04:10:27;13.30;99.90
46416;DHT22;32620;51.704;7.822;2022-10-16T04:12:52;13.20;99.90
46416;DHT22;32620;51.704;7.822;2022-10-16T04:15:21;13.20;99.90
46416;DHT22;32620;51.704;7.822;2022-10-16T04:17:46;13.20;99.90
46416;DHT22;32620;51.704;7.822;2022-10-16T04:20:12;13.20;99.90
46416;DHT22;32620;51.704;7.822;2022-10-16T04:22:37;13.20;99.90
46416;DHT22;32620;51.704;7.822;2022-10-16T04:25:03;13.10;99.90
46416;DHT22;32620;51.704;7.822;2022-10-16T04:27:28;13.00;99.90
46416;DHT22;32620;51.704;7.822;2022-10-16T04:29:57;12.90;99.90
46416;DHT22;32620;51.704;7.822;2022-10-16T04:32:22;12.90;99.90
46416;DHT22;32620;51.704;7.822;2022-10-16T04:34:47;12.90;99.90
46416;DHT22;32620;51.704;7.822;2022-10-16T04:37:13;12.90;99.90
46416;DHT22;32620;51.704;7.822;2022-10-16T04:39:38;12.90;99.90
46416;DHT22;32620;51.704;7.822;2022-10-16T04:42:04;12.90;99.90
46416;DHT22;32620;51.704;7.822;2022-10-16T04:44:29;13.00;99.90
46416;DHT22;32620;51.704;7.822;2022-10-16T04:46:55;13.00;99.90
46416;DHT22;32620;51.704;7.822;2022-10-16T04:49:20;12.90;99.90
46416;DHT22;32620;51.704;7.822;2022-10-16T04:51:45;12.90;99.90
46416;DHT22;32620;51.704;7.822;2022-10-16T04:54:11;12.90;99.90
46416;DHT22;32620;51.704;7.822;2022-10-16T04:56:37;12.90;99.90
46416;DHT22;32620;51.704;7.822;2022-10-16T04:59:08;12.90;99.90
46416;DHT22;32620;51.704;7.822;2022-10-16T05:01:34;12.90;99.90
46416;DHT22;32620;51.704;7.822;2022-10-16T05:03:59;12.80;99.90
46416;DHT22;32620;51.704;7.822;2022-10-16T05:06:25;12.80;99.90
46416;DHT22;32620;51.704;7.822;2022-10-16T05:08:50;12.80;99.90
46416;DHT22;32620;51.704;7.822;2022-10-16T05:11:16;12.80;99.90
46416;DHT22;32620;51.704;7.822;2022-10-16T05:13:41;12.70;99.90
46416;DHT22;32620;51.704;7.822;2022-10-16T05:16:10;12.70;99.90
46416;DHT22;32620;51.704;7.822;2022-10-16T05:18:36;12.70;99.90
46416;DHT22;32620;51.704;7.822;2022-10-16T05:21:01;12.70;99.90
46416;DHT22;32620;51.704;7.822;2022-10-16T05:23:27;12.70;99.90
46416;DHT22;32620;51.704;7.822;2022-10-16T05:25:54;12.70;99.90
46416;DHT22;32620;51.704;7.822;2022-10-16T05:28:20;12.60;99.90
46416;DHT22;32620;51.704;7.822;2022-10-16T05:30:45;12.60;99.90
46416;DHT22;32620;51.704;7.822;2022-10-16T05:33:11;12.70;99.90
46416;DHT22;32620;51.704;7.822;2022-10-16T05:35:36;12.70;99.90
46416;DHT22;32620;51.704;7.822;2022-10-16T05:38:02;12.70;99.90
46416;DHT22;32620;51.704;7.822;2022-10-16T05:40:27;12.70;99.90
46416;DHT22;32620;51.704;7.822;2022-10-16T05:42:54;12.70;99.90
46416;DHT22;32620;51.704;7.822;2022-10-16T05:45:20;12.80;99.90
46416;DHT22;32620;51.704;7.822;2022-10-16T05:47:45;12.80;99.90
46416;DHT22;32620;51.704;7.822;2022-10-16T05:50:11;12.80;99.90
46416;DHT22;32620;51.704;7.822;2022-10-16T05:52:37;12.90;99.90
46416;DHT22;32620;51.704;7.822;2022-10-16T05:55:02;12.90;99.90
46416;DHT22;32620;51.704;7.822;2022-10-16T05:57:28;12.90;99.90
46416;DHT22;32620;51.704;7.822;2022-10-16T05:59:53;12.90;99.90
46416;DHT22;32620;51.704;7.822;2022-10-16T06:02:19;12.90;99.90
46416;DHT22;32620;51.704;7.822;2022-10-16T06:04:44;13.00;99.90
46416;DHT22;32620;51.704;7.822;2022-10-16T06:07:10;13.00;99.90
46416;DHT22;32620;51.704;7.822;2022-10-16T06:09:36;13.10;99.90
46416;DHT22;32620;51.704;7.822;2022-10-16T06:12:01;13.00;99.90
46416;DHT22;32620;51.704;7.822;2022-10-16T06:14:27;13.00;99.90
46416;DHT22;32620;51.704;7.822;2022-10-16T06:16:52;13.10;99.90
46416;DHT22;32620;51.704;7.822;2022-10-16T06:19:18;13.10;99.90
46416;DHT22;32620;51.704;7.822;2022-10-16T06:21:43;13.10;99.90
46416;DHT22;32620;51.704;7.822;2022-10-16T06:24:09;13.10;99.90
46416;DHT22;32620;51.704;7.822;2022-10-16T06:26:34;13.20;99.90
46416;DHT22;32620;51.704;7.822;2022-10-16T06:29:00;13.30;99.90
46416;DHT22;32620;51.704;7.822;2022-10-16T06:31:26;13.30;99.90
46416;DHT22;32620;51.704;7.822;2022-10-16T06:33:52;13.40;99.90
46416;DHT22;32620;51.704;7.822;2022-10-16T06:36:19;13.40;99.90
46416;DHT22;32620;51.704;7.822;2022-10-16T06:38:45;13.50;99.90
46416;DHT22;32620;51.704;7.822;2022-10-16T06:41:11;13.50;99.90
46416;DHT22;32620;51.704;7.822;2022-10-16T06:43:37;13.60;99.90
46416;DHT22;32620;51.704;7.822;2022-10-16T06:46:03;13.60;99.90
46416;DHT22;32620;51.704;7.822;2022-10-16T06:48:29;13.60;99.90
46416;DHT22;32620;51.704;7.822;2022-10-16T06:50:57;13.80;99.90
46416;DHT22;32620;51.704;7.822;2022-10-16T06:53:23;14.10;99.90
46416;DHT22;32620;51.704;7.822;2022-10-16T06:55:48;14.60;99.90
46416;DHT22;32620;51.704;7.822;2022-10-16T06:58:14;15.10;99.90
46416;DHT22;32620;51.704;7.822;2022-10-16T07:00:39;14.90;99.90
46416;DHT22;32620;51.704;7.822;2022-10-16T07:03:05;15.00;99.90
46416;DHT22;32620;51.704;7.822;2022-10-16T07:05:30;14.90;99.90
46416;DHT22;32620;51.704;7.822;2022-10-16T07:07:55;14.80;99.90
46416;DHT22;32620;51.704;7.822;2022-10-16T07:10:21;14.70;99.90
46416;DHT22;32620;51.704;7.822;2022-10-16T07:12:49;14.60;99.90
46416;DHT22;32620;51.704;7.822;2022-10-16T07:15:15;14.50;99.90
46416;DHT22;32620;51.704;7.822;2022-10-16T07:17:40;14.60;99.90
46416;DHT22;32620;51.704;7.822;2022-10-16T07:20:06;14.70;99.90
46416;DHT22;32620;51.704;7.822;2022-10-16T07:22:31;15.00;99.90
46416;DHT22;32620;51.704;7.822;2022-10-16T07:24:57;15.30;99.90
46416;DHT22;32620;51.704;7.822;2022-10-16T07:27:23;15.20;99.90
46416;DHT22;32620;51.704;7.822;2022-10-16T07:29:49;15.10;99.90
46416;DHT22;32620;51.704;7.822;2022-10-16T07:32:15;15.30;99.90
46416;DHT22;32620;51.704;7.822;2022-10-16T07:34:40;16.00;99.90
46416;DHT22;32620;51.704;7.822;2022-10-16T07:37:06;16.40;99.90
46416;DHT22;32620;51.704;7.822;2022-10-16T07:39:31;16.10;99.90
46416;DHT22;32620;51.704;7.822;2022-10-16T07:41:57;16.00;99.90
46416;DHT22;32620;51.704;7.822;2022-10-16T07:44:22;15.50;99.90
46416;DHT22;32620;51.704;7.822;2022-10-16T07:46:48;15.10;99.90
46416;DHT22;32620;51.704;7.822;2022-10-16T07:49:13;15.00;99.90
46416;DHT22;32620;51.704;7.822;2022-10-16T07:51:39;14.80;99.90
46416;DHT22;32620;51.704;7.822;2022-10-16T07:54:04;14.80;99.90
46416;DHT22;32620;51.704;7.822;2022-10-16T07:56:30;15.50;99.90
46416;DHT22;32620;51.704;7.822;2022-10-16T07:58:56;16.40;99.90
46416;DHT22;32620;51.704;7.822;2022-10-16T08:01:22;17.00;99.90
46416;DHT22;32620;51.704;7.822;2022-10-16T08:03:48;17.00;99.90
46416;DHT22;32620;51.704;7.822;2022-10-16T08:06:14;17.90;99.90
46416;DHT22;32620;51.704;7.822;2022-10-16T08:08:40;17.60;99.90
46416;DHT22;32620;51.704;7.822;2022-10-16T08:11:05;17.50;99.90
46416;DHT22;32620;51.704;7.822;2022-10-16T08:13:31;17.30;99.90
46416;DHT22;32620;51.704;7.822;2022-10-16T08:15:56;18.30;99.90
46416;DHT22;32620;51.704;7.822;2022-10-16T08:18:22;18.70;99.90
46416;DHT22;32620;51.704;7.822;2022-10-16T08:20:47;19.10;99.90
46416;DHT22;32620;51.704;7.822;2022-10-16T08:23:13;19.10;99.90
46416;DHT22;32620;51.704;7.822;2022-10-16T08:25:39;18.80;99.90
46416;DHT22;32620;51.704;7.822;2022-10-16T08:28:05;18.70;99.90
46416;DHT22;32620;51.704;7.822;2022-10-16T08:30:31;18.60;99.90
46416;DHT22;32620;51.704;7.822;2022-10-16T08:32:57;18.70;99.90
46416;DHT22;32620;51.704;7.822;2022-10-16T08:35:23;18.70;99.90
46416;DHT22;32620;51.704;7.822;2022-10-16T08:37:49;19.10;99.90
46416;DHT22;32620;51.704;7.822;2022-10-16T08:40:17;19.30;99.90
46416;DHT22;32620;51.704;7.822;2022-10-16T08:42:47;19.50;99.90
46416;DHT22;32620;51.704;7.822;2022-10-16T08:45:25;19.20;99.90
46416;DHT22;32620;51.704;7.822;2022-10-16T08:47:56;19.20;99.90
46416;DHT22;32620;51.704;7.822;2022-10-16T08:50:27;19.80;99.90
46416;DHT22;32620;51.704;7.822;2022-10-16T08:52:53;19.30;99.90
46416;DHT22;32620;51.704;7.822;2022-10-16T08:58:00;19.90;99.90
46416;DHT22;32620;51.704;7.822;2022-10-16T09:00:26;19.50;99.90
46416;DHT22;32620;51.704;7.822;2022-10-16T09:02:54;19.50;99.90
46416;DHT22;32620;51.704;7.822;2022-10-16T09:05:46;19.90;99.90
46416;DHT22;32620;51.704;7.822;2022-10-16T09:08:21;19.40;99.90
46416;DHT22;32620;51.704;7.822;2022-10-16T09:10:55;19.60;99.90
46416;DHT22;32620;51.704;7.822;2022-10-16T09:13:29;19.20;99.90
46416;DHT22;32620;51.704;7.822;2022-10-16T09:16:03;19.50;99.90
46416;DHT22;32620;51.704;7.822;2022-10-16T09:18:37;19.90;99.90
46416;DHT22;32620;51.704;7.822;2022-10-16T09:21:08;19.70;99.90
46416;DHT22;32620;51.704;7.822;2022-10-16T09:23:35;20.00;99.90
46416;DHT22;32620;51.704;7.822;2022-10-16T09:26:01;19.70;99.90
46416;DHT22;32620;51.704;7.822;2022-10-16T09:28:27;20.10;99.90
46416;DHT22;32620;51.704;7.822;2022-10-16T09:30:53;20.30;99.90
46416;DHT22;32620;51.704;7.822;2022-10-16T09:33:20;20.20;99.90
46416;DHT22;32620;51.704;7.822;2022-10-16T09:35:50;20.20;99.90
46416;DHT22;32620;51.704;7.822;2022-10-16T09:38:25;20.40;99.90
46416;DHT22;32620;51.704;7.822;2022-10-16T09:40:51;20.40;99.90
46416;DHT22;32620;51.704;7.822;2022-10-16T09:43:34;19.90;99.90
46416;DHT22;32620;51.704;7.822;2022-10-16T09:46:06;20.40;99.90
46416;DHT22;32620;51.704;7.822;2022-10-16T09:48:35;20.40;99.90
46416;DHT22;32620;51.704;7.822;2022-10-16T09:51:03;20.00;99.90
46416;DHT22;32620;51.704;7.822;2022-10-16T09:53:38;20.20;99.90
46416;DHT22;32620;51.704;7.822;2022-10-16T09:56:04;20.20;99.90
46416;DHT22;32620;51.704;7.822;2022-10-16T09:58:31;20.20;99.90
46416;DHT22;32620;51.704;7.822;2022-10-16T10:00:58;20.70;99.90
46416;DHT22;32620;51.704;7.822;2022-10-16T10:03:33;20.80;99.90
46416;DHT22;32620;51.704;7.822;2022-10-16T10:06:02;20.40;99.90
46416;DHT22;32620;51.704;7.822;2022-10-16T10:08:30;20.40;99.90
46416;DHT22;32620;51.704;7.822;2022-10-16T10:10:55;19.90;99.90
46416;DHT22;32620;51.704;7.822;2022-10-16T10:13:22;19.90;99.90
46416;DHT22;32620;51.704;7.822;2022-10-16T10:15:49;20.00;99.90
46416;DHT22;32620;51.704;7.822;2022-10-16T10:18:17;19.90;99.90
46416;DHT22;32620;51.704;7.822;2022-10-16T10:20:43;19.70;99.90
46416;DHT22;32620;51.704;7.822;2022-10-16T10:23:25;19.70;99.90
46416;DHT22;32620;51.704;7.822;2022-10-16T10:25:54;19.80;99.90
46416;DHT22;32620;51.704;7.822;2022-10-16T10:28:32;20.00;99.90
46416;DHT22;32620;51.704;7.822;2022-10-16T10:34:11;19.90;99.90
46416;DHT22;32620;51.704;7.822;2022-10-16T10:36:39;20.00;99.90
46416;DHT22;32620;51.704;7.822;2022-10-16T10:39:08;20.90;99.90
46416;DHT22;32620;51.704;7.822;2022-10-16T10:42:09;21.40;99.90
46416;DHT22;32620;51.704;7.822;2022-10-16T10:44:26;20.90;99.90
46416;DHT22;32620;51.704;7.822;2022-10-16T10:46:57;20.80;99.90
46416;DHT22;32620;51.704;7.822;2022-10-16T10:52:13;20.50;99.90
46416;DHT22;32620;51.704;7.822;2022-10-16T10:57:28;20.70;99.90
46416;DHT22;32620;51.704;7.822;2022-10-16T10:59:56;20.90;99.90
46416;DHT22;32620;51.704;7.822;2022-10-16T11:02:31;20.90;99.90
46416;DHT22;32620;51.704;7.822;2022-10-16T11:05:17;20.80;99.90
46416;DHT22;32620;51.704;7.822;2022-10-16T11:07:47;21.20;99.90
46416;DHT22;32620;51.704;7.822;2022-10-16T11:10:16;21.10;99.90
46416;DHT22;32620;51.704;7.822;2022-10-16T11:12:44;21.20;99.90
46416;DHT22;32620;51.704;7.822;2022-10-16T11:15:12;21.40;99.90
46416;DHT22;32620;51.704;7.822;2022-10-16T11:17:41;21.30;99.90
46416;DHT22;32620;51.704;7.822;2022-10-16T11:20:16;21.50;99.90
46416;DHT22;32620;51.704;7.822;2022-10-16T11:22:52;21.60;99.90
46416;DHT22;32620;51.704;7.822;2022-10-16T11:25:33;21.30;99.90
46416;DHT22;32620;51.704;7.822;2022-10-16T11:28:32;21.20;99.90
46416;DHT22;32620;51.704;7.822;2022-10-16T11:33:47;20.70;99.90
46416;DHT22;32620;51.704;7.822;2022-10-16T11:36:23;20.20;99.90
46416;DHT22;32620;51.704;7.822;2022-10-16T11:38:53;19.50;99.90
46416;DHT22;32620;51.704;7.822;2022-10-16T11:41:22;19.90;99.90
46416;DHT22;32620;51.704;7.822;2022-10-16T11:43:56;19.70;99.90
46416;DHT22;32620;51.704;7.822;2022-10-16T11:46:23;19.50;99.90
46416;DHT22;32620;51.704;7.822;2022-10-16T11:48:59;19.60;99.90
46416;DHT22;32620;51.704;7.822;2022-10-16T11:51:31;19.50;99.90
46416;DHT22;32620;51.704;7.822;2022-10-16T11:54:03;19.50;99.90
46416;DHT22;32620;51.704;7.822;2022-10-16T11:56:31;19.40;99.90
46416;DHT22;32620;51.704;7.822;2022-10-16T11:58:59;19.10;99.90
46416;DHT22;32620;51.704;7.822;2022-10-16T12:01:35;18.90;99.90
46416;DHT22;32620;51.704;7.822;2022-10-16T12:04:06;18.80;99.90
46416;DHT22;32620;51.704;7.822;2022-10-16T12:06:40;18.80;99.90
46416;DHT22;32620;51.704;7.822;2022-10-16T12:09:11;18.70;99.90
46416;DHT22;32620;51.704;7.822;2022-10-16T12:11:38;18.70;99.90
46416;DHT22;32620;51.704;7.822;2022-10-16T12:14:05;18.70;99.90
46416;DHT22;32620;51.704;7.822;2022-10-16T12:16:32;18.60;99.90
46416;DHT22;32620;51.704;7.822;2022-10-16T12:19:14;18.60;99.90
46416;DHT22;32620;51.704;7.822;2022-10-16T12:21:39;18.70;99.90
46416;DHT22;32620;51.704;7.822;2022-10-16T12:24:05;18.70;99.90
46416;DHT22;32620;51.704;7.822;2022-10-16T12:26:32;18.80;99.90
46416;DHT22;32620;51.704;7.822;2022-10-16T12:29:14;18.90;99.90
46416;DHT22;32620;51.704;7.822;2022-10-16T12:31:45;18.90;99.90
46416;DHT22;32620;51.704;7.822;2022-10-16T12:34:42;18.90;99.90
46416;DHT22;32620;51.704;7.822;2022-10-16T12:37:06;18.90;99.90
46416;DHT22;32620;51.704;7.822;2022-10-16T12:39:32;19.10;99.90
46416;DHT22;32620;51.704;7.822;2022-10-16T12:42:02;19.60;99.90
46416;DHT22;32620;51.704;7.822;2022-10-16T12:44:31;19.70;99.90
46416;DHT22;32620;51.704;7.822;2022-10-16T12:46:57;19.90;99.90
46416;DHT22;32620;51.704;7.822;2022-10-16T12:49:34;19.90;99.90
46416;DHT22;32620;51.704;7.822;2022-10-16T12:52:00;20.00;99.90
46416;DHT22;32620;51.704;7.822;2022-10-16T12:54:30;20.00;99.90
46416;DHT22;32620;51.704;7.822;2022-10-16T12:59:44;20.20;99.90
46416;DHT22;32620;51.704;7.822;2022-10-16T13:05:08;20.10;99.90
46416;DHT22;32620;51.704;7.822;2022-10-16T13:10:26;20.00;99.90
46416;DHT22;32620;51.704;7.822;2022-10-16T13:12:59;20.20;99.90
46416;DHT22;32620;51.704;7.822;2022-10-16T13:15:35;20.30;99.90
46416;DHT22;32620;51.704;7.822;2022-10-16T13:18:13;20.30;99.90
46416;DHT22;32620;51.704;7.822;2022-10-16T13:23:26;20.00;99.90
46416;DHT22;32620;51.704;7.822;2022-10-16T13:26:35;20.10;99.90
46416;DHT22;32620;51.704;7.822;2022-10-16T13:28:38;20.30;99.90
46416;DHT22;32620;51.704;7.822;2022-10-16T13:31:04;20.00;99.90
46416;DHT22;32620;51.704;7.822;2022-10-16T13:33:32;20.00;99.90
46416;DHT22;32620;51.704;7.822;2022-10-16T13:35:58;20.00;99.90
46416;DHT22;32620;51.704;7.822;2022-10-16T13:38:25;20.00;99.90
46416;DHT22;32620;51.704;7.822;2022-10-16T13:40:53;20.00;99.90
46416;DHT22;32620;51.704;7.822;2022-10-16T13:43:19;20.00;99.90
46416;DHT22;32620;51.704;7.822;2022-10-16T13:46:02;20.00;99.90
46416;DHT22;32620;51.704;7.822;2022-10-16T13:48:28;20.20;99.90
46416;DHT22;32620;51.704;7.822;2022-10-16T13:51:25;20.20;99.90
46416;DHT22;32620;51.704;7.822;2022-10-16T13:53:39;20.30;99.90
46416;DHT22;32620;51.704;7.822;2022-10-16T13:56:06;20.30;99.90
46416;DHT22;32620;51.704;7.822;2022-10-16T13:58:32;20.10;99.90
46416;DHT22;32620;51.704;7.822;2022-10-16T14:00:58;20.00;99.90
46416;DHT22;32620;51.704;7.822;2022-10-16T14:03:25;20.00;99.90
46416;DHT22;32620;51.704;7.822;2022-10-16T14:05:52;19.90;99.90
46416;DHT22;32620;51.704;7.822;2022-10-16T14:08:18;19.90;99.90
46416;DHT22;32620;51.704;7.822;2022-10-16T14:10:46;20.00;99.90
46416;DHT22;32620;51.704;7.822;2022-10-16T14:13:14;20.00;99.90
46416;DHT22;32620;51.704;7.822;2022-10-16T14:15:40;19.90;99.90
46416;DHT22;32620;51.704;7.822;2022-10-16T14:18:14;19.90;99.90
46416;DHT22;32620;51.704;7.822;2022-10-16T14:20:42;19.80;99.90
46416;DHT22;32620;51.704;7.822;2022-10-16T14:23:23;19.80;99.90
46416;DHT22;32620;51.704;7.822;2022-10-16T14:25:53;19.60;99.90
46416;DHT22;32620;51.704;7.822;2022-10-16T14:28:20;19.60;99.90
46416;DHT22;32620;51.704;7.822;2022-10-16T14:30:54;19.60;99.90
46416;DHT22;32620;51.704;7.822;2022-10-16T14:33:21;19.60;99.90
46416;DHT22;32620;51.704;7.822;2022-10-16T14:35:46;19.50;99.90
46416;DHT22;32620;51.704;7.822;2022-10-16T14:38:23;19.50;99.90
46416;DHT22;32620;51.704;7.822;2022-10-16T14:40:49;19.60;99.90
46416;DHT22;32620;51.704;7.822;2022-10-16T14:43:26;19.50;99.90
46416;DHT22;32620;51.704;7.822;2022-10-16T14:45:53;19.60;99.90
46416;DHT22;32620;51.704;7.822;2022-10-16T14:48:19;19.60;99.90
46416;DHT22;32620;51.704;7.822;2022-10-16T14:50:46;19.90;99.90
46416;DHT22;32620;51.704;7.822;2022-10-16T14:53:12;20.00;99.90
46416;DHT22;32620;51.704;7.822;2022-10-16T14:55:38;19.90;99.90
46416;DHT22;32620;51.704;7.822;2022-10-16T14:58:04;19.80;99.90
46416;DHT22;32620;51.704;7.822;2022-10-16T15:00:29;19.60;99.90
46416;DHT22;32620;51.704;7.822;2022-10-16T15:02:55;19.40;99.90
46416;DHT22;32620;51.704;7.822;2022-10-16T15:05:22;19.10;99.90
46416;DHT22;32620;51.704;7.822;2022-10-16T15:07:48;19.00;99.90
46416;DHT22;32620;51.704;7.822;2022-10-16T15:10:14;18.80;99.90
46416;DHT22;32620;51.704;7.822;2022-10-16T15:12:41;18.70;99.90
46416;DHT22;32620;51.704;7.822;2022-10-16T15:18:00;18.60;99.90
46416;DHT22;32620;51.704;7.822;2022-10-16T15:20:27;18.60;99.90
46416;DHT22;32620;51.704;7.822;2022-10-16T15:22:52;18.60;99.90
46416;DHT22;32620;51.704;7.822;2022-10-16T15:25:28;18.60;99.90
46416;DHT22;32620;51.704;7.822;2022-10-16T15:27:55;18.70;99.90
46416;DHT22;32620;51.704;7.822;2022-10-16T15:30:20;18.80;99.90
46416;DHT22;32620;51.704;7.822;2022-10-16T15:32:46;18.80;99.90
46416;DHT22;32620;51.704;7.822;2022-10-16T15:35:11;18.70;99.90
46416;DHT22;32620;51.704;7.822;2022-10-16T15:37:37;18.70;99.90
46416;DHT22;32620;51.704;7.822;2022-10-16T15:40:02;18.70;99.90
46416;DHT22;32620;51.704;7.822;2022-10-16T15:42:28;18.60;99.90
46416;DHT22;32620;51.704;7.822;2022-10-16T15:44:53;18.50;99.90
46416;DHT22;32620;51.704;7.822;2022-10-16T15:47:18;18.40;99.90
46416;DHT22;32620;51.704;7.822;2022-10-16T15:49:44;18.30;99.90
46416;DHT22;32620;51.704;7.822;2022-10-16T15:52:11;18.10;99.90
46416;DHT22;32620;51.704;7.822;2022-10-16T15:54:36;18.00;99.90
46416;DHT22;32620;51.704;7.822;2022-10-16T15:57:02;17.80;99.90
46416;DHT22;32620;51.704;7.822;2022-10-16T15:59:27;17.80;99.90
46416;DHT22;32620;51.704;7.822;2022-10-16T16:01:53;17.70;99.90
46416;DHT22;32620;51.704;7.822;2022-10-16T16:04:18;17.60;99.90
46416;DHT22;32620;51.704;7.822;2022-10-16T16:06:44;17.50;99.90
46416;DHT22;32620;51.704;7.822;2022-10-16T16:09:10;17.40;99.90
46416;DHT22;32620;51.704;7.822;2022-10-16T16:11:36;17.30;99.90